sensor_id;sensor_type;location;lat;lon;timestamp;pressure;altitude;pressure_sealevel;temperature;humidity
58698;BME280;44475;53.206;-6.106;2023-10-31T00:02:16;99252.34;;;23.99;51.80
58698;BME280;44475;53.206;-6.106;2023-10-31T00:04:43;99248.53;;;24.08;51.44
58698;BME280;44475;53.206;-6.106;2023-10-31T00:07:09;99254.00;;;24.08;51.60
58698;BME280;44475;53.206;-6.106;2023-10-31T00:09:35;99250.34;;;24.16;51.08
58698;BME280;44475;53.206;-6.106;2023-10-31T00:12:01;99258.63;;;24.08;51.31
58698;BME280;44475;53.206;-6.106;2023-10-31T00:14:28;99256.00;;;24.15;51.26
58698;BME280;44475;53.206;-6.106;2023-10-31T00:16:54;99251.75;;;24.12;51.30
58698;BME280;44475;53.206;-6.106;2023-10-31T00:19:20;99256.59;;;24.02;51.48
58698;BME280;44475;53.206;-6.106;2023-10-31T00:21:46;99255.22;;;24.06;51.32
58698;BME280;44475;53.206;-6.106;2023-10-31T00:24:13;99263.88;;;24.18;50.99
58698;BME280;44475;53.206;-6.106;2023-10-31T00:26:39;99254.09;;;23.92;51.45
58698;BME280;44475;53.206;-6.106;2023-10-31T00:29:05;99272.47;;;24.06;51.21
58698;BME280;44475;53.206;-6.106;2023-10-31T00:31:31;99262.97;;;23.94;51.46
58698;BME280;44475;53.206;-6.106;2023-10-31T00:34:01;99265.59;;;23.87;51.60
58698;BME280;44475;53.206;-6.106;2023-10-31T00:36:28;99267.88;;;24.07;51.11
58698;BME280;44475;53.206;-6.106;2023-10-31T00:38:54;99263.78;;;24.03;51.39
58698;BME280;44475;53.206;-6.106;2023-10-31T00:41:20;99260.56;;;23.99;51.28
58698;BME280;44475;53.206;-6.106;2023-10-31T00:43:46;99263.78;;;24.03;51.07
58698;BME280;44475;53.206;-6.106;2023-10-31T00:46:12;99264.63;;;24.03;51.25
58698;BME280;44475;53.206;-6.106;2023-10-31T00:48:39;99267.72;;;24.00;51.40
58698;BME280;44475;53.206;-6.106;2023-10-31T00:51:06;99262.69;;;24.12;50.84
58698;BME280;44475;53.206;-6.106;2023-10-31T00:53:33;99269.59;;;23.99;51.07
58698;BME280;44475;53.206;-6.106;2023-10-31T00:55:59;99269.59;;;23.99;51.07
58698;BME280;44475;53.206;-6.106;2023-10-31T00:58:25;99268.09;;;23.97;51.04
58698;BME280;44475;53.206;-6.106;2023-10-31T01:00:51;99276.59;;;24.02;51.21
58698;BME280;44475;53.206;-6.106;2023-10-31T01:03:19;99260.22;;;23.94;51.28
58698;BME280;44475;53.206;-6.106;2023-10-31T01:05:45;99272.56;;;23.89;51.10
58698;BME280;44475;53.206;-6.106;2023-10-31T01:08:12;99282.06;;;24.02;51.13
58698;BME280;44475;53.206;-6.106;2023-10-31T01:10:38;99271.34;;;23.92;51.12
58698;BME280;44475;53.206;-6.106;2023-10-31T01:13:04;99278.66;;;24.00;50.98
58698;BME280;44475;53.206;-6.106;2023-10-31T01:15:30;99267.25;;;23.96;50.93
58698;BME280;44475;53.206;-6.106;2023-10-31T01:17:58;99266.38;;;23.96;51.23
58698;BME280;44475;53.206;-6.106;2023-10-31T01:20:25;99264.78;;;23.78;51.68
58698;BME280;44475;53.206;-6.106;2023-10-31T01:22:51;99259.09;;;23.79;51.29
58698;BME280;44475;53.206;-6.106;2023-10-31T01:25:18;99270.88;;;23.88;51.09
58698;BME280;44475;53.206;-6.106;2023-10-31T01:27:44;99268.78;;;23.91;50.97
58698;BME280;44475;53.206;-6.106;2023-10-31T01:30:11;99271.19;;;23.94;50.79
58698;BME280;44475;53.206;-6.106;2023-10-31T01:32:37;99272.72;;;23.96;51.00
58698;BME280;44475;53.206;-6.106;2023-10-31T01:35:04;99273.41;;;23.90;51.09
58698;BME280;44475;53.206;-6.106;2023-10-31T01:37:30;99278.25;;;23.79;51.42
58698;BME280;44475;53.206;-6.106;2023-10-31T01:39:56;99275.78;;;23.93;50.97
58698;BME280;44475;53.206;-6.106;2023-10-31T01:42:23;99275.50;;;23.88;50.87
58698;BME280;44475;53.206;-6.106;2023-10-31T01:44:49;99272.16;;;24.01;50.82
58698;BME280;44475;53.206;-6.106;2023-10-31T01:47:15;99275.41;;;24.05;50.54
58698;BME280;44475;53.206;-6.106;2023-10-31T01:49:41;99276.16;;;23.90;50.91
58698;BME280;44475;53.206;-6.106;2023-10-31T01:52:08;99280.69;;;24.06;50.50
58698;BME280;44475;53.206;-6.106;2023-10-31T01:54:34;99277.50;;;23.94;50.68
58698;BME280;44475;53.206;-6.106;2023-10-31T01:57:02;99275.50;;;24.12;50.47
58698;BME280;44475;53.206;-6.106;2023-10-31T01:59:29;99285.19;;;23.99;50.79
58698;BME280;44475;53.206;-6.106;2023-10-31T02:01:56;99282.00;;;24.11;50.44
58698;BME280;44475;53.206;-6.106;2023-10-31T02:04:24;99274.25;;;23.91;50.75
58698;BME280;44475;53.206;-6.106;2023-10-31T02:06:50;99283.59;;;24.05;50.39
58698;BME280;44475;53.206;-6.106;2023-10-31T02:09:18;99279.34;;;24.02;50.32
58698;BME280;44475;53.206;-6.106;2023-10-31T02:11:44;99281.19;;;23.78;51.08
58698;BME280;44475;53.206;-6.106;2023-10-31T02:14:11;99284.56;;;23.88;51.04
58698;BME280;44475;53.206;-6.106;2023-10-31T02:16:37;99278.03;;;23.89;50.73
58698;BME280;44475;53.206;-6.106;2023-10-31T02:19:04;99280.13;;;23.87;50.74
58698;BME280;44475;53.206;-6.106;2023-10-31T02:21:32;99282.81;;;23.96;50.51
58698;BME280;44475;53.206;-6.106;2023-10-31T02:24:02;99280.81;;;24.13;50.08
58698;BME280;44475;53.206;-6.106;2023-10-31T02:26:32;99295.91;;;24.01;50.45
58698;BME280;44475;53.206;-6.106;2023-10-31T02:29:00;99287.47;;;23.87;50.73
58698;BME280;44475;53.206;-6.106;2023-10-31T02:31:27;99296.69;;;23.86;50.88
58698;BME280;44475;53.206;-6.106;2023-10-31T02:33:53;99300.63;;;23.83;50.77
58698;BME280;44475;53.206;-6.106;2023-10-31T02:36:20;99300.59;;;23.92;50.40
58698;BME280;44475;53.206;-6.106;2023-10-31T02:38:47;99304.06;;;23.85;50.61
58698;BME280;44475;53.206;-6.106;2023-10-31T02:41:14;99308.13;;;23.89;50.61
58698;BME280;44475;53.206;-6.106;2023-10-31T02:43:41;99290.16;;;23.95;50.22
58698;BME280;44475;53.206;-6.106;2023-10-31T02:46:07;99303.72;;;23.80;50.71
58698;BME280;44475;53.206;-6.106;2023-10-31T02:48:34;99308.22;;;24.05;50.36
58698;BME280;44475;53.206;-6.106;2023-10-31T02:51:06;99304.00;;;23.94;50.41
58698;BME280;44475;53.206;-6.106;2023-10-31T02:53:34;99303.28;;;24.00;50.36
58698;BME280;44475;53.206;-6.106;2023-10-31T02:56:00;99314.59;;;23.97;50.24
58698;BME280;44475;53.206;-6.106;2023-10-31T02:58:26;99307.34;;;23.72;50.96
58698;BME280;44475;53.206;-6.106;2023-10-31T03:00:54;99311.19;;;23.95;50.45
58698;BME280;44475;53.206;-6.106;2023-10-31T03:03:20;99311.91;;;23.80;50.82
58698;BME280;44475;53.206;-6.106;2023-10-31T03:05:46;99305.81;;;23.61;51.26
58698;BME280;44475;53.206;-6.106;2023-10-31T03:08:12;99311.56;;;23.83;50.51
58698;BME280;44475;53.206;-6.106;2023-10-31T03:10:40;99315.13;;;23.92;50.34
58698;BME280;44475;53.206;-6.106;2023-10-31T03:13:07;99312.22;;;23.94;50.39
58698;BME280;44475;53.206;-6.106;2023-10-31T03:15:33;99315.28;;;23.99;50.10
58698;BME280;44475;53.206;-6.106;2023-10-31T03:17:59;99320.75;;;23.91;50.29
58698;BME280;44475;53.206;-6.106;2023-10-31T03:20:26;99311.63;;;24.07;49.84
58698;BME280;44475;53.206;-6.106;2023-10-31T03:22:54;99304.19;;;23.92;50.13
58698;BME280;44475;53.206;-6.106;2023-10-31T03:25:20;99324.25;;;23.76;50.59
58698;BME280;44475;53.206;-6.106;2023-10-31T03:27:47;99317.03;;;23.83;50.50
58698;BME280;44475;53.206;-6.106;2023-10-31T03:30:13;99316.88;;;23.85;50.28
58698;BME280;44475;53.206;-6.106;2023-10-31T03:32:40;99320.63;;;23.84;50.48
58698;BME280;44475;53.206;-6.106;2023-10-31T03:35:06;99322.38;;;23.76;50.34
58698;BME280;44475;53.206;-6.106;2023-10-31T03:37:33;99327.69;;;23.78;50.55
58698;BME280;44475;53.206;-6.106;2023-10-31T03:39:59;99328.69;;;23.77;50.72
58698;BME280;44475;53.206;-6.106;2023-10-31T03:42:25;99325.13;;;23.68;50.99
58698;BME280;44475;53.206;-6.106;2023-10-31T03:44:51;99326.22;;;23.91;50.42
58698;BME280;44475;53.206;-6.106;2023-10-31T03:47:17;99327.03;;;24.08;49.91
58698;BME280;44475;53.206;-6.106;2023-10-31T03:49:44;99325.66;;;24.04;49.88
58698;BME280;44475;53.206;-6.106;2023-10-31T03:52:10;99325.16;;;24.00;49.96
58698;BME280;44475;53.206;-6.106;2023-10-31T03:54:36;99330.22;;;23.79;50.44
58698;BME280;44475;53.206;-6.106;2023-10-31T03:57:03;99328.78;;;23.92;50.20
58698;BME280;44475;53.206;-6.106;2023-10-31T03:59:29;99333.19;;;24.02;49.81
58698;BME280;44475;53.206;-6.106;2023-10-31T04:01:55;99332.22;;;23.94;50.01
58698;BME280;44475;53.206;-6.106;2023-10-31T04:04:21;99343.50;;;23.91;50.05
58698;BME280;44475;53.206;-6.106;2023-10-31T04:06:47;99329.34;;;23.79;50.23
58698;BME280;44475;53.206;-6.106;2023-10-31T04:09:14;99327.97;;;23.83;49.88
58698;BME280;44475;53.206;-6.106;2023-10-31T04:11:40;99343.72;;;23.81;50.08
58698;BME280;44475;53.206;-6.106;2023-10-31T04:14:07;99334.81;;;23.87;49.83
58698;BME280;44475;53.206;-6.106;2023-10-31T04:16:40;99340.63;;;23.84;50.28
58698;BME280;44475;53.206;-6.106;2023-10-31T04:19:12;99334.44;;;23.91;49.72
58698;BME280;44475;53.206;-6.106;2023-10-31T04:21:39;99345.41;;;23.82;49.88
58698;BME280;44475;53.206;-6.106;2023-10-31T04:24:06;99351.41;;;23.86;49.91
58698;BME280;44475;53.206;-6.106;2023-10-31T04:26:32;99355.50;;;23.82;49.94
58698;BME280;44475;53.206;-6.106;2023-10-31T04:28:58;99355.66;;;23.88;49.96
58698;BME280;44475;53.206;-6.106;2023-10-31T04:31:25;99348.28;;;23.89;49.79
58698;BME280;44475;53.206;-6.106;2023-10-31T04:33:51;99360.41;;;23.95;49.76
58698;BME280;44475;53.206;-6.106;2023-10-31T04:36:17;99350.22;;;23.80;49.99
58698;BME280;44475;53.206;-6.106;2023-10-31T04:38:43;99360.09;;;23.89;49.57
58698;BME280;44475;53.206;-6.106;2023-10-31T04:41:10;99359.25;;;23.81;49.80
58698;BME280;44475;53.206;-6.106;2023-10-31T04:43:36;99367.06;;;24.01;49.46
58698;BME280;44475;53.206;-6.106;2023-10-31T04:46:02;99362.97;;;23.96;49.32
58698;BME280;44475;53.206;-6.106;2023-10-31T04:48:28;99369.69;;;23.85;49.52
58698;BME280;44475;53.206;-6.106;2023-10-31T04:50:55;99364.19;;;23.94;49.47
58698;BME280;44475;53.206;-6.106;2023-10-31T04:53:22;99373.53;;;24.08;49.00
58698;BME280;44475;53.206;-6.106;2023-10-31T04:55:48;99376.84;;;23.95;49.42
58698;BME280;44475;53.206;-6.106;2023-10-31T04:58:15;99378.91;;;23.84;49.49
58698;BME280;44475;53.206;-6.106;2023-10-31T05:00:41;99377.84;;;23.94;49.40
58698;BME280;44475;53.206;-6.106;2023-10-31T05:03:07;99381.00;;;23.74;49.55
58698;BME280;44475;53.206;-6.106;2023-10-31T05:05:34;99380.03;;;24.07;49.09
58698;BME280;44475;53.206;-6.106;2023-10-31T05:08:00;99389.97;;;23.99;49.12
58698;BME280;44475;53.206;-6.106;2023-10-31T05:10:26;99383.66;;;23.99;49.09
58698;BME280;44475;53.206;-6.106;2023-10-31T05:12:52;99383.94;;;24.13;48.70
58698;BME280;44475;53.206;-6.106;2023-10-31T05:15:20;99390.66;;;24.02;48.94
58698;BME280;44475;53.206;-6.106;2023-10-31T05:17:46;99390.81;;;24.08;48.67
58698;BME280;44475;53.206;-6.106;2023-10-31T05:20:12;99398.63;;;24.12;48.74
58698;BME280;44475;53.206;-6.106;2023-10-31T05:22:40;99394.56;;;24.07;48.79
58698;BME280;44475;53.206;-6.106;2023-10-31T05:25:06;99399.03;;;24.00;49.15
58698;BME280;44475;53.206;-6.106;2023-10-31T05:27:32;99395.78;;;24.05;48.73
58698;BME280;44475;53.206;-6.106;2023-10-31T05:29:59;99390.13;;;24.06;48.99
58698;BME280;44475;53.206;-6.106;2023-10-31T05:32:25;99397.13;;;24.09;48.63
58698;BME280;44475;53.206;-6.106;2023-10-31T05:34:51;99399.41;;;23.97;48.89
58698;BME280;44475;53.206;-6.106;2023-10-31T05:37:17;99395.66;;;23.89;49.37
58698;BME280;44475;53.206;-6.106;2023-10-31T05:39:44;99402.84;;;23.82;49.43
58698;BME280;44475;53.206;-6.106;2023-10-31T05:42:10;99406.41;;;23.91;49.01
58698;BME280;44475;53.206;-6.106;2023-10-31T05:44:36;99409.50;;;23.96;48.92
58698;BME280;44475;53.206;-6.106;2023-10-31T05:47:02;99407.44;;;23.90;48.95
58698;BME280;44475;53.206;-6.106;2023-10-31T05:49:29;99402.47;;;23.94;48.99
58698;BME280;44475;53.206;-6.106;2023-10-31T05:51:56;99394.91;;;24.04;48.66
58698;BME280;44475;53.206;-6.106;2023-10-31T05:54:22;99417.91;;;23.86;49.02
58698;BME280;44475;53.206;-6.106;2023-10-31T05:56:48;99416.66;;;23.97;48.66
58698;BME280;44475;53.206;-6.106;2023-10-31T05:59:15;99425.19;;;24.03;48.67
58698;BME280;44475;53.206;-6.106;2023-10-31T06:01:41;99420.22;;;24.06;48.47
58698;BME280;44475;53.206;-6.106;2023-10-31T06:04:07;99432.19;;;24.05;48.50
58698;BME280;44475;53.206;-6.106;2023-10-31T06:06:36;99425.72;;;23.98;48.72
58698;BME280;44475;53.206;-6.106;2023-10-31T06:09:03;99431.88;;;23.92;48.83
58698;BME280;44475;53.206;-6.106;2023-10-31T06:11:30;99437.72;;;23.80;49.11
58698;BME280;44475;53.206;-6.106;2023-10-31T06:13:57;99436.28;;;24.09;48.41
58698;BME280;44475;53.206;-6.106;2023-10-31T06:16:25;99440.06;;;24.00;48.40
58698;BME280;44475;53.206;-6.106;2023-10-31T06:18:51;99439.06;;;23.93;48.62
58698;BME280;44475;53.206;-6.106;2023-10-31T06:21:17;99449.81;;;24.03;48.35
58698;BME280;44475;53.206;-6.106;2023-10-31T06:23:44;99453.78;;;23.83;48.67
58698;BME280;44475;53.206;-6.106;2023-10-31T06:26:12;99456.03;;;23.88;48.77
58698;BME280;44475;53.206;-6.106;2023-10-31T06:28:38;99450.19;;;23.83;48.67
58698;BME280;44475;53.206;-6.106;2023-10-31T06:31:06;99452.53;;;24.03;48.42
58698;BME280;44475;53.206;-6.106;2023-10-31T06:33:32;99453.78;;;23.92;48.50
58698;BME280;44475;53.206;-6.106;2023-10-31T06:35:58;99452.09;;;23.74;49.15
58698;BME280;44475;53.206;-6.106;2023-10-31T06:38:24;99449.88;;;23.77;48.94
58698;BME280;44475;53.206;-6.106;2023-10-31T06:40:51;99456.19;;;23.86;48.70
58698;BME280;44475;53.206;-6.106;2023-10-31T06:43:17;99458.25;;;23.76;48.78
58698;BME280;44475;53.206;-6.106;2023-10-31T06:45:43;99461.84;;;23.85;48.64
58698;BME280;44475;53.206;-6.106;2023-10-31T06:48:09;99463.00;;;23.91;48.51
58698;BME280;44475;53.206;-6.106;2023-10-31T06:50:36;99469.34;;;23.83;48.65
58698;BME280;44475;53.206;-6.106;2023-10-31T06:53:02;99464.41;;;23.78;48.97
58698;BME280;44475;53.206;-6.106;2023-10-31T06:55:29;99474.31;;;23.87;48.71
58698;BME280;44475;53.206;-6.106;2023-10-31T06:57:55;99480.97;;;23.85;48.39
58698;BME280;44475;53.206;-6.106;2023-10-31T07:00:21;99481.84;;;23.77;48.78
58698;BME280;44475;53.206;-6.106;2023-10-31T07:02:47;99486.13;;;23.71;48.80
58698;BME280;44475;53.206;-6.106;2023-10-31T07:05:14;99490.22;;;23.75;48.65
58698;BME280;44475;53.206;-6.106;2023-10-31T07:07:41;99498.59;;;23.74;48.58
58698;BME280;44475;53.206;-6.106;2023-10-31T07:10:08;99507.81;;;23.73;48.83
58698;BME280;44475;53.206;-6.106;2023-10-31T07:12:34;99510.53;;;23.89;48.50
58698;BME280;44475;53.206;-6.106;2023-10-31T07:15:00;99509.19;;;23.85;48.50
58698;BME280;44475;53.206;-6.106;2023-10-31T07:17:27;99513.97;;;23.83;48.25
58698;BME280;44475;53.206;-6.106;2023-10-31T07:19:53;99515.69;;;23.84;48.45
58698;BME280;44475;53.206;-6.106;2023-10-31T07:22:19;99513.09;;;23.91;48.16
58698;BME280;44475;53.206;-6.106;2023-10-31T07:24:45;99517.91;;;23.72;48.67
58698;BME280;44475;53.206;-6.106;2023-10-31T07:27:11;99505.75;;;23.83;48.14
58698;BME280;44475;53.206;-6.106;2023-10-31T07:29:41;99517.72;;;23.99;47.84
58698;BME280;44475;53.206;-6.106;2023-10-31T07:32:08;99526.06;;;24.06;47.71
58698;BME280;44475;53.206;-6.106;2023-10-31T07:34:35;99529.19;;;23.86;48.08
58698;BME280;44475;53.206;-6.106;2023-10-31T07:37:01;99528.16;;;23.78;48.46
58698;BME280;44475;53.206;-6.106;2023-10-31T07:39:28;99525.41;;;23.78;48.40
58698;BME280;44475;53.206;-6.106;2023-10-31T07:41:55;99515.69;;;23.76;48.39
58698;BME280;44475;53.206;-6.106;2023-10-31T07:44:22;99528.69;;;23.74;48.48
58698;BME280;44475;53.206;-6.106;2023-10-31T07:46:48;99530.00;;;24.03;47.99
58698;BME280;44475;53.206;-6.106;2023-10-31T07:49:14;99532.25;;;23.83;48.12
58698;BME280;44475;53.206;-6.106;2023-10-31T07:51:41;99531.75;;;23.96;48.15
58698;BME280;44475;53.206;-6.106;2023-10-31T07:54:07;99545.06;;;23.91;48.19
58698;BME280;44475;53.206;-6.106;2023-10-31T07:56:35;99550.72;;;23.81;48.24
58698;BME280;44475;53.206;-6.106;2023-10-31T07:59:02;99554.66;;;23.78;48.49
58698;BME280;44475;53.206;-6.106;2023-10-31T08:01:28;99558.94;;;23.72;48.37
58698;BME280;44475;53.206;-6.106;2023-10-31T08:03:55;99554.66;;;23.86;48.13
58698;BME280;44475;53.206;-6.106;2023-10-31T08:06:21;99564.56;;;23.87;48.25
58698;BME280;44475;53.206;-6.106;2023-10-31T08:08:47;99565.78;;;23.76;48.31
58698;BME280;44475;53.206;-6.106;2023-10-31T08:11:14;99564.41;;;23.72;48.34
58698;BME280;44475;53.206;-6.106;2023-10-31T08:13:41;99564.94;;;23.67;48.58
58698;BME280;44475;53.206;-6.106;2023-10-31T08:16:08;99563.38;;;23.82;48.32
58698;BME280;44475;53.206;-6.106;2023-10-31T08:18:34;99575.00;;;23.75;48.47
58698;BME280;44475;53.206;-6.106;2023-10-31T08:21:03;99570.38;;;23.76;48.57
58698;BME280;44475;53.206;-6.106;2023-10-31T08:23:29;99579.63;;;23.75;48.47
58698;BME280;44475;53.206;-6.106;2023-10-31T08:25:56;99570.22;;;23.77;48.30
58698;BME280;44475;53.206;-6.106;2023-10-31T08:28:22;99573.13;;;23.84;48.13
58698;BME280;44475;53.206;-6.106;2023-10-31T08:30:49;99578.59;;;23.84;48.27
58698;BME280;44475;53.206;-6.106;2023-10-31T08:33:15;99577.72;;;23.92;47.81
58698;BME280;44475;53.206;-6.106;2023-10-31T08:35:42;99593.97;;;23.85;47.98
58698;BME280;44475;53.206;-6.106;2023-10-31T08:38:09;99590.56;;;23.83;48.16
58698;BME280;44475;53.206;-6.106;2023-10-31T08:40:35;99605.25;;;23.91;47.81
58698;BME280;44475;53.206;-6.106;2023-10-31T08:43:01;99611.56;;;23.74;48.41
58698;BME280;44475;53.206;-6.106;2023-10-31T08:45:30;99612.94;;;23.70;48.40
58698;BME280;44475;53.206;-6.106;2023-10-31T08:47:56;99619.44;;;23.77;48.25
58698;BME280;44475;53.206;-6.106;2023-10-31T08:50:22;99610.38;;;23.77;48.25
58698;BME280;44475;53.206;-6.106;2023-10-31T08:52:48;99621.81;;;23.89;47.86
58698;BME280;44475;53.206;-6.106;2023-10-31T08:55:15;99621.13;;;23.78;48.32
58698;BME280;44475;53.206;-6.106;2023-10-31T08:57:41;99627.13;;;23.74;48.38
58698;BME280;44475;53.206;-6.106;2023-10-31T09:00:08;99622.88;;;23.88;48.08
58698;BME280;44475;53.206;-6.106;2023-10-31T09:02:34;99621.16;;;23.87;48.04
58698;BME280;44475;53.206;-6.106;2023-10-31T09:05:01;99626.97;;;23.75;48.58
58698;BME280;44475;53.206;-6.106;2023-10-31T09:07:27;99627.47;;;23.71;48.70
58698;BME280;44475;53.206;-6.106;2023-10-31T09:09:53;99621.25;;;23.60;48.82
58698;BME280;44475;53.206;-6.106;2023-10-31T09:12:20;99632.06;;;23.70;48.85
58698;BME280;44475;53.206;-6.106;2023-10-31T09:14:46;99633.44;;;23.66;48.81
58698;BME280;44475;53.206;-6.106;2023-10-31T09:17:12;99628.16;;;23.64;49.15
58698;BME280;44475;53.206;-6.106;2023-10-31T09:19:38;99626.09;;;23.75;48.88
58698;BME280;44475;53.206;-6.106;2023-10-31T09:22:05;99624.72;;;23.71;48.94
58698;BME280;44475;53.206;-6.106;2023-10-31T09:24:31;99622.84;;;23.63;49.04
58698;BME280;44475;53.206;-6.106;2023-10-31T09:26:57;99625.59;;;23.71;48.69
58698;BME280;44475;53.206;-6.106;2023-10-31T09:29:23;99624.84;;;23.61;49.32
58698;BME280;44475;53.206;-6.106;2023-10-31T09:31:49;99630.19;;;23.71;48.76
58698;BME280;44475;53.206;-6.106;2023-10-31T09:34:16;99630.31;;;23.61;49.07
58698;BME280;44475;53.206;-6.106;2023-10-31T09:36:42;99636.53;;;23.71;49.11
58698;BME280;44475;53.206;-6.106;2023-10-31T09:39:09;99638.41;;;23.79;48.67
58698;BME280;44475;53.206;-6.106;2023-10-31T09:41:35;99629.34;;;23.70;48.81
58698;BME280;44475;53.206;-6.106;2023-10-31T09:44:02;99633.63;;;23.64;49.23
58698;BME280;44475;53.206;-6.106;2023-10-31T09:46:31;99637.38;;;23.80;48.87
58698;BME280;44475;53.206;-6.106;2023-10-31T09:48:58;99633.63;;;23.89;48.48
58698;BME280;44475;53.206;-6.106;2023-10-31T09:51:25;99626.44;;;23.72;49.05
58698;BME280;44475;53.206;-6.106;2023-10-31T09:53:54;99620.97;;;23.80;49.00
58698;BME280;44475;53.206;-6.106;2023-10-31T09:56:22;99623.31;;;23.58;49.30
58698;BME280;44475;53.206;-6.106;2023-10-31T09:58:49;99636.19;;;23.66;49.15
58698;BME280;44475;53.206;-6.106;2023-10-31T10:01:15;99632.75;;;23.64;49.20
58698;BME280;44475;53.206;-6.106;2023-10-31T10:03:42;99640.09;;;23.63;49.14
58698;BME280;44475;53.206;-6.106;2023-10-31T10:06:09;99639.25;;;23.79;48.96
58698;BME280;44475;53.206;-6.106;2023-10-31T10:08:37;99644.22;;;23.76;48.80
58698;BME280;44475;53.206;-6.106;2023-10-31T10:11:05;99646.09;;;23.75;48.90
58698;BME280;44475;53.206;-6.106;2023-10-31T10:13:31;99647.13;;;23.74;49.15
58698;BME280;44475;53.206;-6.106;2023-10-31T10:15:58;99652.59;;;23.74;49.22
58698;BME280;44475;53.206;-6.106;2023-10-31T10:18:29;99651.75;;;23.82;48.94
58698;BME280;44475;53.206;-6.106;2023-10-31T10:20:57;99632.94;;;23.71;48.93
58698;BME280;44475;53.206;-6.106;2023-10-31T10:23:25;99654.16;;;23.85;48.79
58698;BME280;44475;53.206;-6.106;2023-10-31T10:25:53;99655.50;;;23.89;48.74
58698;BME280;44475;53.206;-6.106;2023-10-31T10:28:19;99656.03;;;23.76;49.25
58698;BME280;44475;53.206;-6.106;2023-10-31T10:30:46;99660.97;;;23.81;48.82
58698;BME280;44475;53.206;-6.106;2023-10-31T10:33:14;99652.94;;;23.79;49.27
58698;BME280;44475;53.206;-6.106;2023-10-31T10:35:41;99655.66;;;23.79;49.14
58698;BME280;44475;53.206;-6.106;2023-10-31T10:38:17;99667.47;;;23.72;49.38
58698;BME280;44475;53.206;-6.106;2023-10-31T10:40:45;99665.41;;;23.74;49.49
58698;BME280;44475;53.206;-6.106;2023-10-31T10:43:28;99676.69;;;23.79;49.27
58698;BME280;44475;53.206;-6.106;2023-10-31T10:45:58;99677.19;;;23.66;49.68
58698;BME280;44475;53.206;-6.106;2023-10-31T10:48:28;99675.16;;;23.76;49.29
58698;BME280;44475;53.206;-6.106;2023-10-31T10:51:13;99664.06;;;23.78;49.22
58698;BME280;44475;53.206;-6.106;2023-10-31T10:53:51;99672.78;;;23.82;49.26
58698;BME280;44475;53.206;-6.106;2023-10-31T10:56:34;99676.88;;;23.77;49.08
58698;BME280;44475;53.206;-6.106;2023-10-31T11:01:37;99683.38;;;23.85;49.29
58698;BME280;44475;53.206;-6.106;2023-10-31T11:04:05;99676.19;;;24.01;48.81
58698;BME280;44475;53.206;-6.106;2023-10-31T11:06:34;99671.25;;;23.87;49.27
58698;BME280;44475;53.206;-6.106;2023-10-31T11:09:01;99673.47;;;23.92;49.16
58698;BME280;44475;53.206;-6.106;2023-10-31T11:11:30;99675.00;;;23.95;48.87
58698;BME280;44475;53.206;-6.106;2023-10-31T11:13:57;99679.09;;;23.91;49.23
58698;BME280;44475;53.206;-6.106;2023-10-31T11:16:34;99676.53;;;23.81;49.29
58698;BME280;44475;53.206;-6.106;2023-10-31T11:19:04;99683.22;;;23.86;49.21
58698;BME280;44475;53.206;-6.106;2023-10-31T11:21:31;99688.16;;;23.83;49.38
58698;BME280;44475;53.206;-6.106;2023-10-31T11:24:00;99683.72;;;23.90;49.26
58698;BME280;44475;53.206;-6.106;2023-10-31T11:26:29;99688.16;;;23.83;49.35
58698;BME280;44475;53.206;-6.106;2023-10-31T11:29:08;99686.59;;;23.80;49.55
58698;BME280;44475;53.206;-6.106;2023-10-31T11:31:38;99688.16;;;23.91;49.12
58698;BME280;44475;53.206;-6.106;2023-10-31T11:34:06;99679.25;;;23.81;49.46
58698;BME280;44475;53.206;-6.106;2023-10-31T11:36:32;99676.38;;;23.91;49.27
58698;BME280;44475;53.206;-6.106;2023-10-31T11:39:17;99684.41;;;23.92;49.10
58698;BME280;44475;53.206;-6.106;2023-10-31T11:41:54;99676.03;;;23.94;49.04
58698;BME280;44475;53.206;-6.106;2023-10-31T11:44:26;99674.31;;;23.84;49.52
58698;BME280;44475;53.206;-6.106;2023-10-31T11:46:53;99691.44;;;23.95;49.23
58698;BME280;44475;53.206;-6.106;2023-10-31T11:49:45;99677.94;;;24.18;48.63
58698;BME280;44475;53.206;-6.106;2023-10-31T11:52:15;99683.59;;;24.08;48.50
58698;BME280;44475;53.206;-6.106;2023-10-31T11:54:42;99682.03;;;23.97;48.84
58698;BME280;44475;53.206;-6.106;2023-10-31T11:57:08;99678.59;;;24.04;48.56
58698;BME280;44475;53.206;-6.106;2023-10-31T11:59:38;99679.31;;;23.97;49.34
58698;BME280;44475;53.206;-6.106;2023-10-31T12:02:15;99677.59;;;23.96;49.47
58698;BME280;44475;53.206;-6.106;2023-10-31T12:04:41;99680.97;;;23.82;49.93
58698;BME280;44475;53.206;-6.106;2023-10-31T12:07:08;99676.03;;;23.85;50.00
58698;BME280;44475;53.206;-6.106;2023-10-31T12:09:46;99669.53;;;23.86;49.95
58698;BME280;44475;53.206;-6.106;2023-10-31T12:12:13;99673.13;;;23.95;49.79
58698;BME280;44475;53.206;-6.106;2023-10-31T12:14:40;99663.75;;;24.06;49.44
58698;BME280;44475;53.206;-6.106;2023-10-31T12:17:06;99671.59;;;24.01;49.43
58698;BME280;44475;53.206;-6.106;2023-10-31T12:19:33;99657.06;;;23.92;49.93
58698;BME280;44475;53.206;-6.106;2023-10-31T12:22:00;99645.59;;;24.05;49.51
58698;BME280;44475;53.206;-6.106;2023-10-31T12:24:28;99660.31;;;24.13;49.33
58698;BME280;44475;53.206;-6.106;2023-10-31T12:26:54;99663.72;;;23.89;49.90
58698;BME280;44475;53.206;-6.106;2023-10-31T12:29:21;99654.00;;;23.87;49.95
58698;BME280;44475;53.206;-6.106;2023-10-31T12:31:54;99662.19;;;23.95;49.80
58698;BME280;44475;53.206;-6.106;2023-10-31T12:34:24;99658.44;;;24.05;49.63
58698;BME280;44475;53.206;-6.106;2023-10-31T12:36:52;99667.34;;;24.07;49.45
58698;BME280;44475;53.206;-6.106;2023-10-31T12:39:23;99664.09;;;24.20;49.20
58698;BME280;44475;53.206;-6.106;2023-10-31T12:41:50;99653.81;;;24.31;48.64
58698;BME280;44475;53.206;-6.106;2023-10-31T12:44:26;99654.16;;;24.19;49.10
58698;BME280;44475;53.206;-6.106;2023-10-31T12:46:53;99655.69;;;24.30;49.02
58698;BME280;44475;53.206;-6.106;2023-10-31T12:49:20;99651.94;;;24.31;48.91
58698;BME280;44475;53.206;-6.106;2023-10-31T12:52:04;99651.41;;;24.36;48.76
58698;BME280;44475;53.206;-6.106;2023-10-31T12:54:37;99654.16;;;24.27;48.92